sensor_id;sensor_type;location;lat;lon;timestamp;P1;durP1;ratioP1;P2;durP2;ratioP2
4206;SDS011;2117;47.972;7.830;2023-04-02T00:07:55;8.43;;;2.23;;
4206;SDS011;2117;47.972;7.830;2023-04-02T00:10:46;2.10;;;1.03;;
4206;SDS011;2117;47.972;7.830;2023-04-02T00:15:41;2.07;;;0.80;;
4206;SDS011;2117;47.972;7.830;2023-04-02T00:18:17;3.50;;;1.00;;
4206;SDS011;2117;47.972;7.830;2023-04-02T00:20:46;2.13;;;0.90;;
4206;SDS011;2117;47.972;7.830;2023-04-02T00:23:16;8.63;;;1.43;;
4206;SDS011;2117;47.972;7.830;2023-04-02T00:25:44;5.93;;;1.47;;
4206;SDS011;2117;47.972;7.830;2023-04-02T00:28:12;3.10;;;1.17;;
4206;SDS011;2117;47.972;7.830;2023-04-02T00:30:46;3.10;;;0.90;;
4206;SDS011;2117;47.972;7.830;2023-04-02T00:33:16;3.23;;;0.97;;
4206;SDS011;2117;47.972;7.830;2023-04-02T00:35:44;2.20;;;0.80;;
4206;SDS011;2117;47.972;7.830;2023-04-02T00:38:16;5.33;;;1.10;;
4206;SDS011;2117;47.972;7.830;2023-04-02T00:40:46;2.03;;;0.90;;
4206;SDS011;2117;47.972;7.830;2023-04-02T00:43:13;3.87;;;1.20;;
4206;SDS011;2117;47.972;7.830;2023-04-02T00:45:40;4.13;;;1.03;;
4206;SDS011;2117;47.972;7.830;2023-04-02T00:50:54;3.10;;;0.90;;
4206;SDS011;2117;47.972;7.830;2023-04-02T00:53:23;2.13;;;0.80;;
4206;SDS011;2117;47.972;7.830;2023-04-02T00:55:51;3.83;;;1.00;;
4206;SDS011;2117;47.972;7.830;2023-04-02T01:00:51;4.17;;;1.00;;
4206;SDS011;2117;47.972;7.830;2023-04-02T01:05:50;1.97;;;0.87;;
4206;SDS011;2117;47.972;7.830;2023-04-02T01:08:36;2.27;;;1.00;;
4206;SDS011;2117;47.972;7.830;2023-04-02T01:11:16;4.07;;;1.07;;
4206;SDS011;2117;47.972;7.830;2023-04-02T01:16:40;2.90;;;0.90;;
4206;SDS011;2117;47.972;7.830;2023-04-02T01:19:30;1.37;;;0.60;;
4206;SDS011;2117;47.972;7.830;2023-04-02T01:25:17;2.27;;;1.00;;
4206;SDS011;2117;47.972;7.830;2023-04-02T01:28:12;4.60;;;1.07;;
4206;SDS011;2117;47.972;7.830;2023-04-02T01:30:44;1.30;;;0.70;;
4206;SDS011;2117;47.972;7.830;2023-04-02T01:33:13;2.70;;;0.70;;
4206;SDS011;2117;47.972;7.830;2023-04-02T01:35:39;1.87;;;0.70;;
4206;SDS011;2117;47.972;7.830;2023-04-02T01:38:16;1.40;;;0.80;;
4206;SDS011;2117;47.972;7.830;2023-04-02T01:46:23;3.30;;;1.00;;
4206;SDS011;2117;47.972;7.830;2023-04-02T01:48:54;2.80;;;0.90;;
4206;SDS011;2117;47.972;7.830;2023-04-02T01:51:33;2.53;;;0.90;;
4206;SDS011;2117;47.972;7.830;2023-04-02T01:54:03;1.87;;;0.80;;
4206;SDS011;2117;47.972;7.830;2023-04-02T01:56:30;1.87;;;1.00;;
4206;SDS011;2117;47.972;7.830;2023-04-02T01:58:56;4.17;;;1.43;;
4206;SDS011;2117;47.972;7.830;2023-04-02T02:01:24;5.40;;;0.67;;
4206;SDS011;2117;47.972;7.830;2023-04-02T02:03:55;5.10;;;2.80;;
4206;SDS011;2117;47.972;7.830;2023-04-02T02:06:20;7.00;;;0.80;;
4206;SDS011;2117;47.972;7.830;2023-04-02T02:09:00;2.30;;;1.03;;
4206;SDS011;2117;47.972;7.830;2023-04-02T02:11:28;1.43;;;0.87;;
4206;SDS011;2117;47.972;7.830;2023-04-02T02:13:56;2.67;;;1.43;;
4206;SDS011;2117;47.972;7.830;2023-04-02T02:16:25;3.60;;;1.23;;
4206;SDS011;2117;47.972;7.830;2023-04-02T02:18:53;3.17;;;1.20;;
4206;SDS011;2117;47.972;7.830;2023-04-02T02:24:16;3.00;;;1.10;;
4206;SDS011;2117;47.972;7.830;2023-04-02T02:26:46;8.53;;;1.90;;
4206;SDS011;2117;47.972;7.830;2023-04-02T02:29:16;1.73;;;0.83;;
4206;SDS011;2117;47.972;7.830;2023-04-02T02:31:44;8.00;;;1.40;;
4206;SDS011;2117;47.972;7.830;2023-04-02T02:34:15;2.00;;;1.10;;
4206;SDS011;2117;47.972;7.830;2023-04-02T02:36:50;4.03;;;1.00;;
4206;SDS011;2117;47.972;7.830;2023-04-02T02:39:39;2.80;;;0.90;;
4206;SDS011;2117;47.972;7.830;2023-04-02T02:42:18;2.90;;;1.30;;
4206;SDS011;2117;47.972;7.830;2023-04-02T02:44:51;5.23;;;1.70;;
4206;SDS011;2117;47.972;7.830;2023-04-02T02:47:21;2.57;;;0.90;;
4206;SDS011;2117;47.972;7.830;2023-04-02T02:49:55;4.60;;;1.20;;
4206;SDS011;2117;47.972;7.830;2023-04-02T02:52:25;4.80;;;1.30;;
4206;SDS011;2117;47.972;7.830;2023-04-02T02:54:56;4.90;;;1.10;;
4206;SDS011;2117;47.972;7.830;2023-04-02T02:57:27;2.53;;;1.20;;
4206;SDS011;2117;47.972;7.830;2023-04-02T02:59:57;2.20;;;0.90;;
4206;SDS011;2117;47.972;7.830;2023-04-02T03:02:25;1.53;;;0.90;;
4206;SDS011;2117;47.972;7.830;2023-04-02T03:04:52;3.63;;;1.17;;
4206;SDS011;2117;47.972;7.830;2023-04-02T03:07:21;3.63;;;1.13;;
4206;SDS011;2117;47.972;7.830;2023-04-02T03:09:53;2.60;;;1.00;;
4206;SDS011;2117;47.972;7.830;2023-04-02T03:15:20;2.20;;;1.10;;
4206;SDS011;2117;47.972;7.830;2023-04-02T03:20:25;4.77;;;1.03;;
4206;SDS011;2117;47.972;7.830;2023-04-02T03:23:21;5.10;;;1.77;;
4206;SDS011;2117;47.972;7.830;2023-04-02T03:28:27;3.40;;;1.57;;
4206;SDS011;2117;47.972;7.830;2023-04-02T03:30:58;2.07;;;1.07;;
4206;SDS011;2117;47.972;7.830;2023-04-02T03:33:33;2.37;;;1.30;;
4206;SDS011;2117;47.972;7.830;2023-04-02T03:36:04;4.23;;;1.53;;
4206;SDS011;2117;47.972;7.830;2023-04-02T03:38:40;2.73;;;1.37;;
4206;SDS011;2117;47.972;7.830;2023-04-02T03:41:16;4.03;;;1.10;;
4206;SDS011;2117;47.972;7.830;2023-04-02T03:43:48;2.93;;;1.20;;
4206;SDS011;2117;47.972;7.830;2023-04-02T03:46:25;1.20;;;0.77;;
4206;SDS011;2117;47.972;7.830;2023-04-02T03:48:58;2.60;;;1.10;;
4206;SDS011;2117;47.972;7.830;2023-04-02T03:54:25;2.37;;;1.40;;
4206;SDS011;2117;47.972;7.830;2023-04-02T03:56:52;1.50;;;0.80;;
4206;SDS011;2117;47.972;7.830;2023-04-02T04:02:22;1.20;;;0.80;;
4206;SDS011;2117;47.972;7.830;2023-04-02T04:04:59;1.73;;;0.70;;
4206;SDS011;2117;47.972;7.830;2023-04-02T04:07:35;1.40;;;0.80;;
4206;SDS011;2117;47.972;7.830;2023-04-02T04:10:05;3.00;;;0.70;;
4206;SDS011;2117;47.972;7.830;2023-04-02T04:12:38;1.93;;;0.70;;
4206;SDS011;2117;47.972;7.830;2023-04-02T04:20:28;1.20;;;0.80;;
4206;SDS011;2117;47.972;7.830;2023-04-02T04:23:13;1.40;;;0.70;;
4206;SDS011;2117;47.972;7.830;2023-04-02T04:25:55;2.00;;;0.77;;
4206;SDS011;2117;47.972;7.830;2023-04-02T04:28:48;2.50;;;0.70;;
4206;SDS011;2117;47.972;7.830;2023-04-02T04:31:35;2.33;;;0.90;;
4206;SDS011;2117;47.972;7.830;2023-04-02T04:34:13;2.50;;;0.97;;
4206;SDS011;2117;47.972;7.830;2023-04-02T04:36:54;2.50;;;0.70;;
4206;SDS011;2117;47.972;7.830;2023-04-02T04:39:28;1.20;;;0.67;;
4206;SDS011;2117;47.972;7.830;2023-04-02T04:41:56;1.40;;;0.80;;
4206;SDS011;2117;47.972;7.830;2023-04-02T04:44:38;2.40;;;0.70;;
4206;SDS011;2117;47.972;7.830;2023-04-02T04:47:10;1.53;;;1.00;;
4206;SDS011;2117;47.972;7.830;2023-04-02T04:49:45;1.63;;;0.63;;
4206;SDS011;2117;47.972;7.830;2023-04-02T04:52:37;2.30;;;0.80;;
4206;SDS011;2117;47.972;7.830;2023-04-02T04:57:54;1.60;;;0.60;;
4206;SDS011;2117;47.972;7.830;2023-04-02T05:02:58;1.93;;;0.57;;
4206;SDS011;2117;47.972;7.830;2023-04-02T05:05:35;4.30;;;0.87;;
4206;SDS011;2117;47.972;7.830;2023-04-02T05:08:25;4.40;;;0.80;;
4206;SDS011;2117;47.972;7.830;2023-04-02T05:10:53;1.63;;;0.60;;
4206;SDS011;2117;47.972;7.830;2023-04-02T05:13:47;1.13;;;0.60;;
4206;SDS011;2117;47.972;7.830;2023-04-02T05:16:21;1.30;;;0.70;;
4206;SDS011;2117;47.972;7.830;2023-04-02T05:29:58;1.17;;;0.70;;
4206;SDS011;2117;47.972;7.830;2023-04-02T05:32:36;1.60;;;0.60;;
4206;SDS011;2117;47.972;7.830;2023-04-02T05:35:13;1.63;;;0.60;;
4206;SDS011;2117;47.972;7.830;2023-04-02T05:37:40;1.70;;;0.60;;
4206;SDS011;2117;47.972;7.830;2023-04-02T05:40:11;1.17;;;0.60;;
4206;SDS011;2117;47.972;7.830;2023-04-02T05:42:51;3.27;;;0.93;;
4206;SDS011;2117;47.972;7.830;2023-04-02T05:45:28;1.23;;;0.90;;
4206;SDS011;2117;47.972;7.830;2023-04-02T05:47:58;1.03;;;0.60;;
4206;SDS011;2117;47.972;7.830;2023-04-02T05:50:28;1.47;;;0.60;;
4206;SDS011;2117;47.972;7.830;2023-04-02T05:53:16;1.43;;;0.70;;
4206;SDS011;2117;47.972;7.830;2023-04-02T05:56:18;1.57;;;0.70;;
4206;SDS011;2117;47.972;7.830;2023-04-02T06:06:51;2.97;;;1.17;;
4206;SDS011;2117;47.972;7.830;2023-04-02T06:09:44;6.50;;;2.10;;
4206;SDS011;2117;47.972;7.830;2023-04-02T06:14:43;1.83;;;1.20;;
4206;SDS011;2117;47.972;7.830;2023-04-02T06:17:15;1.90;;;0.90;;
4206;SDS011;2117;47.972;7.830;2023-04-02T06:19:43;1.30;;;0.80;;
4206;SDS011;2117;47.972;7.830;2023-04-02T06:22:21;1.47;;;0.80;;
4206;SDS011;2117;47.972;7.830;2023-04-02T06:27:53;1.30;;;0.90;;
4206;SDS011;2117;47.972;7.830;2023-04-02T06:30:35;2.83;;;1.20;;
4206;SDS011;2117;47.972;7.830;2023-04-02T06:33:03;1.87;;;0.80;;
4206;SDS011;2117;47.972;7.830;2023-04-02T06:35:29;1.30;;;0.73;;
4206;SDS011;2117;47.972;7.830;2023-04-02T06:37:57;1.47;;;1.00;;
4206;SDS011;2117;47.972;7.830;2023-04-02T06:40:30;1.67;;;0.70;;
4206;SDS011;2117;47.972;7.830;2023-04-02T06:43:05;1.00;;;0.60;;
4206;SDS011;2117;47.972;7.830;2023-04-02T06:45:40;1.37;;;0.90;;
4206;SDS011;2117;47.972;7.830;2023-04-02T06:48:16;1.57;;;0.80;;
4206;SDS011;2117;47.972;7.830;2023-04-02T06:50:47;1.20;;;0.70;;
4206;SDS011;2117;47.972;7.830;2023-04-02T06:53:36;1.30;;;0.60;;
4206;SDS011;2117;47.972;7.830;2023-04-02T06:56:15;1.30;;;0.70;;
4206;SDS011;2117;47.972;7.830;2023-04-02T06:58:47;0.90;;;0.50;;
4206;SDS011;2117;47.972;7.830;2023-04-02T07:01:17;1.50;;;0.90;;
4206;SDS011;2117;47.972;7.830;2023-04-02T07:03:47;1.80;;;0.80;;
4206;SDS011;2117;47.972;7.830;2023-04-02T07:06:14;1.33;;;0.70;;
4206;SDS011;2117;47.972;7.830;2023-04-02T07:08:41;1.97;;;0.80;;
4206;SDS011;2117;47.972;7.830;2023-04-02T07:11:07;1.67;;;0.70;;
4206;SDS011;2117;47.972;7.830;2023-04-02T07:13:37;1.27;;;0.77;;
4206;SDS011;2117;47.972;7.830;2023-04-02T07:16:03;1.43;;;0.60;;
4206;SDS011;2117;47.972;7.830;2023-04-02T07:18:30;2.17;;;0.90;;
4206;SDS011;2117;47.972;7.830;2023-04-02T07:20:57;1.73;;;0.80;;
4206;SDS011;2117;47.972;7.830;2023-04-02T07:23:23;1.00;;;0.70;;
4206;SDS011;2117;47.972;7.830;2023-04-02T07:25:50;3.00;;;1.73;;
4206;SDS011;2117;47.972;7.830;2023-04-02T07:28:17;1.40;;;0.80;;
4206;SDS011;2117;47.972;7.830;2023-04-02T07:30:43;1.20;;;0.80;;
4206;SDS011;2117;47.972;7.830;2023-04-02T07:33:16;1.13;;;0.70;;
4206;SDS011;2117;47.972;7.830;2023-04-02T07:35:44;2.80;;;0.70;;
4206;SDS011;2117;47.972;7.830;2023-04-02T07:38:10;5.10;;;0.90;;
4206;SDS011;2117;47.972;7.830;2023-04-02T07:40:36;1.57;;;0.60;;
4206;SDS011;2117;47.972;7.830;2023-04-02T07:43:02;1.20;;;0.60;;
4206;SDS011;2117;47.972;7.830;2023-04-02T07:45:28;1.43;;;0.67;;
4206;SDS011;2117;47.972;7.830;2023-04-02T07:47:54;1.03;;;0.60;;
4206;SDS011;2117;47.972;7.830;2023-04-02T07:50:19;1.10;;;0.60;;
4206;SDS011;2117;47.972;7.830;2023-04-02T07:52:45;1.10;;;0.60;;
4206;SDS011;2117;47.972;7.830;2023-04-02T07:55:11;1.53;;;0.60;;
4206;SDS011;2117;47.972;7.830;2023-04-02T07:57:59;1.10;;;0.60;;
4206;SDS011;2117;47.972;7.830;2023-04-02T08:00:24;1.60;;;0.80;;
4206;SDS011;2117;47.972;7.830;2023-04-02T08:02:50;1.00;;;0.60;;
4206;SDS011;2117;47.972;7.830;2023-04-02T08:05:17;1.00;;;0.50;;
4206;SDS011;2117;47.972;7.830;2023-04-02T08:07:43;1.00;;;0.60;;
4206;SDS011;2117;47.972;7.830;2023-04-02T08:10:15;1.20;;;0.60;;
4206;SDS011;2117;47.972;7.830;2023-04-02T08:12:43;1.30;;;0.60;;
4206;SDS011;2117;47.972;7.830;2023-04-02T08:15:12;0.97;;;0.57;;
4206;SDS011;2117;47.972;7.830;2023-04-02T08:17:38;1.30;;;0.60;;
4206;SDS011;2117;47.972;7.830;2023-04-02T08:20:04;1.17;;;0.60;;
4206;SDS011;2117;47.972;7.830;2023-04-02T08:22:30;4.40;;;0.60;;
4206;SDS011;2117;47.972;7.830;2023-04-02T08:24:56;1.00;;;0.50;;
4206;SDS011;2117;47.972;7.830;2023-04-02T08:27:22;1.27;;;0.60;;
4206;SDS011;2117;47.972;7.830;2023-04-02T08:29:48;1.63;;;0.60;;
4206;SDS011;2117;47.972;7.830;2023-04-02T08:32:14;1.30;;;0.70;;
4206;SDS011;2117;47.972;7.830;2023-04-02T08:34:41;1.60;;;0.70;;
4206;SDS011;2117;47.972;7.830;2023-04-02T08:37:08;1.67;;;0.70;;
4206;SDS011;2117;47.972;7.830;2023-04-02T08:39:37;1.40;;;0.60;;
4206;SDS011;2117;47.972;7.830;2023-04-02T08:42:14;1.67;;;0.60;;
4206;SDS011;2117;47.972;7.830;2023-04-02T08:45:10;1.00;;;0.60;;
4206;SDS011;2117;47.972;7.830;2023-04-02T08:47:49;1.20;;;0.50;;
4206;SDS011;2117;47.972;7.830;2023-04-02T08:50:30;2.20;;;0.60;;
4206;SDS011;2117;47.972;7.830;2023-04-02T08:52:58;1.00;;;0.60;;
4206;SDS011;2117;47.972;7.830;2023-04-02T08:58:23;1.10;;;0.60;;
4206;SDS011;2117;47.972;7.830;2023-04-02T09:00:59;1.00;;;0.50;;
4206;SDS011;2117;47.972;7.830;2023-04-02T09:03:31;1.20;;;0.63;;
4206;SDS011;2117;47.972;7.830;2023-04-02T09:06:08;1.00;;;0.50;;
4206;SDS011;2117;47.972;7.830;2023-04-02T09:08:37;1.10;;;0.50;;
4206;SDS011;2117;47.972;7.830;2023-04-02T09:14:11;1.60;;;0.50;;
4206;SDS011;2117;47.972;7.830;2023-04-02T09:16:43;1.00;;;0.50;;
4206;SDS011;2117;47.972;7.830;2023-04-02T09:19:14;1.00;;;0.50;;
4206;SDS011;2117;47.972;7.830;2023-04-02T09:24:30;1.00;;;0.50;;
4206;SDS011;2117;47.972;7.830;2023-04-02T09:26:56;1.30;;;0.50;;
4206;SDS011;2117;47.972;7.830;2023-04-02T09:29:23;1.00;;;0.50;;
4206;SDS011;2117;47.972;7.830;2023-04-02T09:32:29;1.60;;;0.67;;
4206;SDS011;2117;47.972;7.830;2023-04-02T09:35:16;1.37;;;0.60;;
4206;SDS011;2117;47.972;7.830;2023-04-02T09:37:47;1.00;;;0.50;;
4206;SDS011;2117;47.972;7.830;2023-04-02T09:40:50;1.10;;;0.53;;
4206;SDS011;2117;47.972;7.830;2023-04-02T09:43:20;1.30;;;0.50;;
4206;SDS011;2117;47.972;7.830;2023-04-02T09:45:55;1.10;;;0.50;;
4206;SDS011;2117;47.972;7.830;2023-04-02T09:48:30;1.70;;;0.67;;
4206;SDS011;2117;47.972;7.830;2023-04-02T09:51:11;1.10;;;0.60;;
4206;SDS011;2117;47.972;7.830;2023-04-02T09:53:43;1.03;;;0.50;;
4206;SDS011;2117;47.972;7.830;2023-04-02T09:56:12;1.10;;;0.50;;
4206;SDS011;2117;47.972;7.830;2023-04-02T09:58:39;1.00;;;0.50;;
4206;SDS011;2117;47.972;7.830;2023-04-02T10:01:13;1.10;;;0.60;;
4206;SDS011;2117;47.972;7.830;2023-04-02T10:04:00;1.87;;;0.60;;
4206;SDS011;2117;47.972;7.830;2023-04-02T10:06:28;1.10;;;0.60;;
4206;SDS011;2117;47.972;7.830;2023-04-02T10:08:54;1.13;;;0.50;;
4206;SDS011;2117;47.972;7.830;2023-04-02T10:11:29;1.00;;;0.50;;
4206;SDS011;2117;47.972;7.830;2023-04-02T10:14:02;1.10;;;0.50;;
4206;SDS011;2117;47.972;7.830;2023-04-02T10:16:36;1.50;;;0.60;;
4206;SDS011;2117;47.972;7.830;2023-04-02T10:19:12;1.40;;;0.60;;
4206;SDS011;2117;47.972;7.830;2023-04-02T10:21:47;2.50;;;0.50;;
4206;SDS011;2117;47.972;7.830;2023-04-02T10:24:14;2.17;;;0.70;;
4206;SDS011;2117;47.972;7.830;2023-04-02T10:26:50;1.00;;;0.60;;
4206;SDS011;2117;47.972;7.830;2023-04-02T10:29:33;1.30;;;0.60;;
4206;SDS011;2117;47.972;7.830;2023-04-02T10:40:20;1.10;;;0.50;;
4206;SDS011;2117;47.972;7.830;2023-04-02T10:46:18;1.17;;;0.60;;
4206;SDS011;2117;47.972;7.830;2023-04-02T10:51:42;1.63;;;0.50;;
4206;SDS011;2117;47.972;7.830;2023-04-02T10:57:01;1.10;;;0.50;;
4206;SDS011;2117;47.972;7.830;2023-04-02T10:59:33;1.00;;;0.50;;
4206;SDS011;2117;47.972;7.830;2023-04-02T11:02:03;1.27;;;0.60;;
4206;SDS011;2117;47.972;7.830;2023-04-02T11:04:48;1.60;;;0.70;;
4206;SDS011;2117;47.972;7.830;2023-04-02T11:07:17;1.10;;;0.60;;
4206;SDS011;2117;47.972;7.830;2023-04-02T11:09:47;1.50;;;0.77;;
4206;SDS011;2117;47.972;7.830;2023-04-02T11:15:13;1.00;;;0.50;;
4206;SDS011;2117;47.972;7.830;2023-04-02T11:17:41;1.03;;;0.50;;
4206;SDS011;2117;47.972;7.830;2023-04-02T11:23:11;5.20;;;1.67;;
4206;SDS011;2117;47.972;7.830;2023-04-02T11:25:39;5.63;;;1.60;;
4206;SDS011;2117;47.972;7.830;2023-04-02T11:28:13;41.77;;;6.40;;
4206;SDS011;2117;47.972;7.830;2023-04-02T11:30:59;17.93;;;4.70;;
4206;SDS011;2117;47.972;7.830;2023-04-02T11:35:59;7.33;;;1.93;;
4206;SDS011;2117;47.972;7.830;2023-04-02T11:40:52;2.70;;;0.80;;
4206;SDS011;2117;47.972;7.830;2023-04-02T11:45:57;4.83;;;1.40;;
4206;SDS011;2117;47.972;7.830;2023-04-02T11:48:42;1.83;;;0.73;;
4206;SDS011;2117;47.972;7.830;2023-04-02T11:51:10;6.87;;;2.13;;
4206;SDS011;2117;47.972;7.830;2023-04-02T11:53:49;2.50;;;0.70;;
4206;SDS011;2117;47.972;7.830;2023-04-02T11:56:26;1.53;;;0.60;;
4206;SDS011;2117;47.972;7.830;2023-04-02T11:59:05;1.20;;;0.60;;
4206;SDS011;2117;47.972;7.830;2023-04-02T12:13:18;5.23;;;1.07;;
4206;SDS011;2117;47.972;7.830;2023-04-02T12:15:45;1.67;;;0.70;;
4206;SDS011;2117;47.972;7.830;2023-04-02T12:18:20;1.60;;;0.57;;
4206;SDS011;2117;47.972;7.830;2023-04-02T12:20:48;2.00;;;0.67;;
4206;SDS011;2117;47.972;7.830;2023-04-02T12:23:23;1.93;;;0.70;;
4206;SDS011;2117;47.972;7.830;2023-04-02T12:28:25;1.20;;;0.60;;
4206;SDS011;2117;47.972;7.830;2023-04-02T12:33:33;1.43;;;0.60;;
4206;SDS011;2117;47.972;7.830;2023-04-02T12:36:05;1.87;;;0.70;;
4206;SDS011;2117;47.972;7.830;2023-04-02T12:38:52;2.40;;;0.73;;
4206;SDS011;2117;47.972;7.830;2023-04-02T12:41:31;2.33;;;0.57;;
4206;SDS011;2117;47.972;7.830;2023-04-02T12:46:35;1.20;;;0.50;;
4206;SDS011;2117;47.972;7.830;2023-04-02T12:49:26;1.77;;;0.57;;
4206;SDS011;2117;47.972;7.830;2023-04-02T12:51:57;1.20;;;0.50;;
4206;SDS011;2117;47.972;7.830;2023-04-02T12:54:25;1.20;;;0.60;;
4206;SDS011;2117;47.972;7.830;2023-04-02T12:56:51;1.40;;;0.60;;
4206;SDS011;2117;47.972;7.830;2023-04-02T12:59:28;2.37;;;0.60;;
4206;SDS011;2117;47.972;7.830;2023-04-02T13:01:59;1.70;;;0.60;;
4206;SDS011;2117;47.972;7.830;2023-04-02T13:04:26;1.50;;;0.70;;
4206;SDS011;2117;47.972;7.830;2023-04-02T13:06:52;1.33;;;0.60;;
4206;SDS011;2117;47.972;7.830;2023-04-02T13:09:43;1.33;;;0.60;;
4206;SDS011;2117;47.972;7.830;2023-04-02T13:12:23;1.30;;;0.60;;
4206;SDS011;2117;47.972;7.830;2023-04-02T13:14:54;1.20;;;0.50;;
4206;SDS011;2117;47.972;7.830;2023-04-02T13:23:02;1.23;;;0.57;;
4206;SDS011;2117;47.972;7.830;2023-04-02T13:25:49;1.20;;;0.50;;
4206;SDS011;2117;47.972;7.830;2023-04-02T13:28:15;1.40;;;0.60;;
4206;SDS011;2117;47.972;7.830;2023-04-02T13:30:40;1.37;;;0.60;;
4206;SDS011;2117;47.972;7.830;2023-04-02T13:33:06;1.10;;;0.50;;
4206;SDS011;2117;47.972;7.830;2023-04-02T13:35:31;1.20;;;0.50;;
4206;SDS011;2117;47.972;7.830;2023-04-02T13:37:57;1.10;;;0.50;;
4206;SDS011;2117;47.972;7.830;2023-04-02T13:40:22;1.10;;;0.50;;
4206;SDS011;2117;47.972;7.830;2023-04-02T13:42:48;1.50;;;0.57;;
4206;SDS011;2117;47.972;7.830;2023-04-02T13:45:22;2.03;;;0.70;;
4206;SDS011;2117;47.972;7.830;2023-04-02T13:47:50;1.30;;;0.60;;
4206;SDS011;2117;47.972;7.830;2023-04-02T13:50:17;1.10;;;0.50;;
4206;SDS011;2117;47.972;7.830;2023-04-02T13:52:45;2.93;;;0.70;;
4206;SDS011;2117;47.972;7.830;2023-04-02T13:55:11;1.10;;;0.60;;
4206;SDS011;2117;47.972;7.830;2023-04-02T13:57:38;1.50;;;0.70;;
4206;SDS011;2117;47.972;7.830;2023-04-02T14:00:04;2.70;;;0.70;;
4206;SDS011;2117;47.972;7.830;2023-04-02T14:02:30;1.40;;;0.60;;
4206;SDS011;2117;47.972;7.830;2023-04-02T14:05:13;4.57;;;0.80;;
4206;SDS011;2117;47.972;7.830;2023-04-02T14:10:19;1.20;;;0.60;;
4206;SDS011;2117;47.972;7.830;2023-04-02T14:18:55;1.97;;;0.90;;
4206;SDS011;2117;47.972;7.830;2023-04-02T14:21:51;1.23;;;0.50;;
4206;SDS011;2117;47.972;7.830;2023-04-02T14:24:28;1.17;;;0.67;;
4206;SDS011;2117;47.972;7.830;2023-04-02T14:32:31;1.97;;;0.67;;
4206;SDS011;2117;47.972;7.830;2023-04-02T14:35:20;1.53;;;0.90;;
4206;SDS011;2117;47.972;7.830;2023-04-02T14:38:02;1.33;;;0.77;;
4206;SDS011;2117;47.972;7.830;2023-04-02T14:43:24;1.50;;;0.70;;
4206;SDS011;2117;47.972;7.830;2023-04-02T14:45:57;1.10;;;0.60;;
4206;SDS011;2117;47.972;7.830;2023-04-02T14:48:29;1.77;;;0.70;;
4206;SDS011;2117;47.972;7.830;2023-04-02T14:56:22;2.60;;;0.60;;
4206;SDS011;2117;47.972;7.830;2023-04-02T14:58:50;1.00;;;0.50;;
4206;SDS011;2117;47.972;7.830;2023-04-02T15:01:30;1.27;;;0.60;;
4206;SDS011;2117;47.972;7.830;2023-04-02T15:04:03;1.20;;;0.60;;
4206;SDS011;2117;47.972;7.830;2023-04-02T15:06:43;2.13;;;0.60;;
4206;SDS011;2117;47.972;7.830;2023-04-02T15:09:14;1.83;;;0.70;;
4206;SDS011;2117;47.972;7.830;2023-04-02T15:12:20;1.20;;;0.60;;
4206;SDS011;2117;47.972;7.830;2023-04-02T15:14:49;1.40;;;0.70;;
4206;SDS011;2117;47.972;7.830;2023-04-02T15:17:47;1.60;;;0.90;;
4206;SDS011;2117;47.972;7.830;2023-04-02T15:20:14;1.10;;;0.70;;
4206;SDS011;2117;47.972;7.830;2023-04-02T15:22:43;1.50;;;0.80;;
4206;SDS011;2117;47.972;7.830;2023-04-02T15:25:24;1.80;;;0.70;;
4206;SDS011;2117;47.972;7.830;2023-04-02T15:28:11;2.57;;;0.97;;
4206;SDS011;2117;47.972;7.830;2023-04-02T15:30:50;1.20;;;0.60;;
4206;SDS011;2117;47.972;7.830;2023-04-02T15:38:44;1.93;;;0.80;;
4206;SDS011;2117;47.972;7.830;2023-04-02T15:41:25;1.70;;;0.70;;
4206;SDS011;2117;47.972;7.830;2023-04-02T15:43:56;3.40;;;0.77;;
4206;SDS011;2117;47.972;7.830;2023-04-02T15:49:13;4.13;;;0.70;;
4206;SDS011;2117;47.972;7.830;2023-04-02T15:51:54;1.30;;;0.60;;
4206;SDS011;2117;47.972;7.830;2023-04-02T16:10:58;3.83;;;1.00;;
4206;SDS011;2117;47.972;7.830;2023-04-02T16:13:25;1.83;;;0.70;;
4206;SDS011;2117;47.972;7.830;2023-04-02T16:16:07;1.30;;;0.70;;
4206;SDS011;2117;47.972;7.830;2023-04-02T16:21:13;3.50;;;2.43;;
4206;SDS011;2117;47.972;7.830;2023-04-02T16:23:42;3.40;;;2.23;;
4206;SDS011;2117;47.972;7.830;2023-04-02T16:31:45;3.00;;;1.00;;
4206;SDS011;2117;47.972;7.830;2023-04-02T16:36:57;1.40;;;0.73;;
4206;SDS011;2117;47.972;7.830;2023-04-02T16:42:29;2.03;;;0.70;;
4206;SDS011;2117;47.972;7.830;2023-04-02T16:45:14;1.80;;;1.20;;
4206;SDS011;2117;47.972;7.830;2023-04-02T16:59:17;3.53;;;1.57;;
4206;SDS011;2117;47.972;7.830;2023-04-02T17:13:14;2.67;;;1.70;;
4206;SDS011;2117;47.972;7.830;2023-04-02T17:15:50;1.60;;;1.03;;
4206;SDS011;2117;47.972;7.830;2023-04-02T17:18:25;2.50;;;0.90;;
4206;SDS011;2117;47.972;7.830;2023-04-02T17:20:59;1.20;;;0.60;;
4206;SDS011;2117;47.972;7.830;2023-04-02T17:23:28;1.70;;;0.80;;
4206;SDS011;2117;47.972;7.830;2023-04-02T17:25:56;1.67;;;1.00;;
4206;SDS011;2117;47.972;7.830;2023-04-02T17:28:26;1.40;;;0.80;;
4206;SDS011;2117;47.972;7.830;2023-04-02T17:31:01;2.20;;;1.17;;
4206;SDS011;2117;47.972;7.830;2023-04-02T17:33:36;3.73;;;1.10;;
4206;SDS011;2117;47.972;7.830;2023-04-02T17:36:12;2.03;;;1.13;;
4206;SDS011;2117;47.972;7.830;2023-04-02T17:38:56;1.80;;;0.93;;
4206;SDS011;2117;47.972;7.830;2023-04-02T17:41:43;2.43;;;1.20;;
4206;SDS011;2117;47.972;7.830;2023-04-02T17:47:32;1.67;;;1.17;;
4206;SDS011;2117;47.972;7.830;2023-04-02T18:03:55;2.70;;;1.10;;
4206;SDS011;2117;47.972;7.830;2023-04-02T18:12:54;1.40;;;0.80;;
4206;SDS011;2117;47.972;7.830;2023-04-02T18:20:38;1.80;;;1.13;;
4206;SDS011;2117;47.972;7.830;2023-04-02T18:23:24;3.50;;;1.40;;
4206;SDS011;2117;47.972;7.830;2023-04-02T18:26:09;2.43;;;1.47;;
4206;SDS011;2117;47.972;7.830;2023-04-02T18:29:42;3.00;;;1.70;;
4206;SDS011;2117;47.972;7.830;2023-04-02T18:32:18;9.23;;;5.03;;
4206;SDS011;2117;47.972;7.830;2023-04-02T18:35:13;5.63;;;3.20;;
4206;SDS011;2117;47.972;7.830;2023-04-02T18:41:03;2.10;;;1.20;;
4206;SDS011;2117;47.972;7.830;2023-04-02T18:43:50;2.40;;;1.77;;
4206;SDS011;2117;47.972;7.830;2023-04-02T18:46:30;2.23;;;1.50;;
4206;SDS011;2117;47.972;7.830;2023-04-02T18:49:26;2.03;;;1.37;;
4206;SDS011;2117;47.972;7.830;2023-04-02T18:51:59;2.67;;;1.83;;
4206;SDS011;2117;47.972;7.830;2023-04-02T18:56:56;1.90;;;1.37;;
4206;SDS011;2117;47.972;7.830;2023-04-02T18:59:39;2.60;;;1.60;;
4206;SDS011;2117;47.972;7.830;2023-04-02T19:05:18;1.90;;;1.20;;
4206;SDS011;2117;47.972;7.830;2023-04-02T19:07:49;2.13;;;1.63;;
4206;SDS011;2117;47.972;7.830;2023-04-02T19:12:52;2.40;;;1.40;;
4206;SDS011;2117;47.972;7.830;2023-04-02T19:15:18;2.13;;;1.33;;
4206;SDS011;2117;47.972;7.830;2023-04-02T19:17:52;1.57;;;1.20;;
4206;SDS011;2117;47.972;7.830;2023-04-02T19:20:45;3.63;;;1.20;;
4206;SDS011;2117;47.972;7.830;2023-04-02T19:26:29;3.73;;;1.50;;
4206;SDS011;2117;47.972;7.830;2023-04-02T19:32:38;2.23;;;1.63;;
4206;SDS011;2117;47.972;7.830;2023-04-02T19:37:55;2.47;;;2.10;;
4206;SDS011;2117;47.972;7.830;2023-04-02T19:43:21;4.70;;;3.33;;
4206;SDS011;2117;47.972;7.830;2023-04-02T19:45:47;4.87;;;2.70;;
4206;SDS011;2117;47.972;7.830;2023-04-02T19:50:42;7.53;;;2.93;;
4206;SDS011;2117;47.972;7.830;2023-04-02T19:53:07;3.67;;;2.30;;
4206;SDS011;2117;47.972;7.830;2023-04-02T19:55:33;2.40;;;2.03;;
4206;SDS011;2117;47.972;7.830;2023-04-02T19:57:59;2.37;;;2.17;;
4206;SDS011;2117;47.972;7.830;2023-04-02T20:00:25;3.20;;;2.43;;
4206;SDS011;2117;47.972;7.830;2023-04-02T20:02:51;3.27;;;2.67;;
4206;SDS011;2117;47.972;7.830;2023-04-02T20:05:17;5.20;;;4.03;;
4206;SDS011;2117;47.972;7.830;2023-04-02T20:07:42;8.20;;;6.30;;
4206;SDS011;2117;47.972;7.830;2023-04-02T20:10:08;7.70;;;6.90;;
4206;SDS011;2117;47.972;7.830;2023-04-02T20:12:34;9.23;;;8.30;;
4206;SDS011;2117;47.972;7.830;2023-04-02T20:15:00;9.50;;;8.20;;
4206;SDS011;2117;47.972;7.830;2023-04-02T20:17:26;9.77;;;8.80;;
4206;SDS011;2117;47.972;7.830;2023-04-02T20:19:53;8.63;;;7.73;;
4206;SDS011;2117;47.972;7.830;2023-04-02T20:22:18;9.90;;;8.80;;
4206;SDS011;2117;47.972;7.830;2023-04-02T20:24:44;10.00;;;9.00;;
4206;SDS011;2117;47.972;7.830;2023-04-02T20:27:09;10.97;;;8.47;;
4206;SDS011;2117;47.972;7.830;2023-04-02T20:29:35;9.70;;;8.70;;
4206;SDS011;2117;47.972;7.830;2023-04-02T20:32:01;9.17;;;7.50;;
4206;SDS011;2117;47.972;7.830;2023-04-02T20:34:26;8.97;;;8.07;;
4206;SDS011;2117;47.972;7.830;2023-04-02T20:36:52;10.00;;;7.97;;